createdAt,value
2023-05-06T00:02:11.366Z,100326.19
2023-05-06T00:07:13.380Z,100324.91
2023-05-06T00:12:14.061Z,100325.97
2023-05-06T00:17:14.956Z,100316.50
2023-05-06T00:22:17.156Z,100307.72
2023-05-06T00:27:17.900Z,100307.78
2023-05-06T00:32:18.524Z,100304.16
2023-05-06T00:37:20.505Z,100292.94
2023-05-06T00:42:23.237Z,100284.53
2023-05-06T00:47:24.192Z,100293.22
2023-05-06T00:52:26.442Z,100285.34
2023-05-06T00:57:27.711Z,100300.41
2023-05-06T01:02:39.559Z,100292.72
2023-05-06T01:07:53.632Z,100282.34
2023-05-06T01:13:03.605Z,100275.44
2023-05-06T01:18:11.317Z,100264.03
2023-05-06T01:23:14.786Z,100267.69
2023-05-06T01:28:15.727Z,100280.75
2023-05-06T01:33:24.858Z,100286.72
2023-05-06T01:38:35.913Z,100291.88
2023-05-06T01:43:42.478Z,100288.59
2023-05-06T01:48:46.142Z,100291.16
2023-05-06T01:53:48.215Z,100297.28
2023-05-06T01:58:48.975Z,100285.81
2023-05-06T02:03:49.846Z,100291.22
2023-05-06T02:08:52.836Z,100271.22
2023-05-06T02:13:58.249Z,100269.63
2023-05-06T02:18:59.173Z,100256.50
2023-05-06T02:24:01.824Z,100251.47
2023-05-06T02:29:02.740Z,100248.91
2023-05-06T02:34:04.542Z,100241.94
2023-05-06T02:39:06.545Z,100238.56
2023-05-06T02:44:08.463Z,100243.88
2023-05-06T02:49:09.159Z,100230.78
2023-05-06T02:54:11.325Z,100224.69
2023-05-06T02:59:12.026Z,100216.66
2023-05-06T03:04:12.718Z,100229.72
2023-05-06T03:09:15.618Z,100224.50
2023-05-06T03:14:16.759Z,100232.22
2023-05-06T03:19:17.477Z,100241.66
2023-05-06T03:24:20.301Z,100239.47
2023-05-06T03:29:22.167Z,100246.03
2023-05-06T03:34:23.007Z,100241.41
2023-05-06T03:39:25.070Z,100234.94
2023-05-06T03:44:26.641Z,100246.75
2023-05-06T03:49:27.533Z,100234.88
2023-05-06T03:54:29.736Z,100238.59
2023-05-06T03:59:30.667Z,100234.16
2023-05-06T04:04:32.396Z,100235.75
2023-05-06T04:09:34.448Z,100238.31
2023-05-06T04:14:40.646Z,100237.53
2023-05-06T04:19:42.201Z,100244.50
2023-05-06T04:24:45.713Z,100256.47
2023-05-06T04:29:47.893Z,100270.47
2023-05-06T04:34:50.163Z,100256.59
2023-05-06T04:39:52.312Z,100272.88
2023-05-06T04:44:53.727Z,100269.25
2023-05-06T04:49:59.231Z,100276.13
2023-05-06T04:55:02.344Z,100274.91
2023-05-06T05:00:06.318Z,100284.69
2023-05-06T05:05:08.280Z,100273.81
2023-05-06T05:10:12.410Z,100281.22
2023-05-06T05:15:13.732Z,100281.66
2023-05-06T05:20:14.999Z,100283.09
2023-05-06T05:25:17.272Z,100283.91
2023-05-06T05:30:19.270Z,100283.63
2023-05-06T05:35:20.191Z,100291.84
2023-05-06T05:40:23.841Z,100293.47
2023-05-06T05:45:27.126Z,100296.16
2023-05-06T05:50:28.670Z,100294.00
2023-05-06T05:55:33.325Z,100302.75
2023-05-06T06:00:34.069Z,100304.22
2023-05-06T06:05:42.843Z,100302.97
2023-05-06T06:10:45.261Z,100304.09
2023-05-06T06:15:51.448Z,100309.56
2023-05-06T06:20:53.412Z,100314.94
2023-05-06T06:25:55.813Z,100318.16
2023-05-06T06:30:56.508Z,100314.75
2023-05-06T06:35:58.319Z,100323.91
2023-05-06T06:41:00.485Z,100326.03
2023-05-06T06:46:01.253Z,100330.78
2023-05-06T06:51:01.933Z,100329.19
2023-05-06T06:56:03.962Z,100321.28
2023-05-06T07:01:04.815Z,100318.59
2023-05-06T07:06:05.578Z,100329.50
2023-05-06T07:11:07.608Z,100335.66
2023-05-06T07:16:08.360Z,100345.84
2023-05-06T07:21:09.016Z,100347.19
2023-05-06T07:26:11.007Z,100345.34
2023-05-06T07:31:11.715Z,100337.81
2023-05-06T07:36:12.459Z,100337.72
2023-05-06T07:41:14.699Z,100346.75
2023-05-06T07:46:15.813Z,100353.56
2023-05-06T07:51:17.688Z,100361.16
2023-05-06T07:56:20.093Z,100367.53
2023-05-06T08:01:20.834Z,100374.97
2023-05-06T08:06:21.598Z,100383.19
2023-05-06T08:11:23.722Z,100384.09
2023-05-06T08:16:25.485Z,100377.72
2023-05-06T08:21:26.557Z,100391.19
2023-05-06T08:26:28.624Z,100393.34
2023-05-06T08:31:29.295Z,100405.09
2023-05-06T08:36:30.126Z,100413.25
2023-05-06T08:41:35.387Z,100416.66
2023-05-06T08:46:36.619Z,100429.22
2023-05-06T08:51:39.129Z,100431.66
2023-05-06T08:56:46.442Z,100432.41
2023-05-06T09:01:47.276Z,100426.19
2023-05-06T09:06:48.032Z,100440.66
2023-05-06T09:11:54.156Z,100417.19
2023-05-06T09:16:54.999Z,100435.47
2023-05-06T09:21:56.796Z,100442.09
2023-05-06T09:26:59.106Z,100445.59
2023-05-06T09:32:06.879Z,100455.34
2023-05-06T09:37:07.617Z,100447.66
2023-05-06T09:42:09.635Z,100447.78
2023-05-06T09:47:11.555Z,100447.91
2023-05-06T09:52:13.105Z,100458.31
2023-05-06T09:57:18.009Z,100464.25
2023-05-06T10:02:20.466Z,100461.88
2023-05-06T10:07:23.631Z,100458.84
2023-05-06T10:12:26.686Z,100460.44
2023-05-06T10:17:28.328Z,100462.78
2023-05-06T10:22:42.764Z,100458.41
2023-05-06T10:27:46.525Z,100462.72
2023-05-06T10:32:47.731Z,100464.19
2023-05-06T10:37:50.074Z,100465.75
2023-05-06T10:42:52.264Z,100462.94
2023-05-06T10:48:12.713Z,100461.88
2023-05-06T10:53:13.451Z,100466.06
2023-05-06T10:58:17.344Z,100469.63
2023-05-06T11:03:24.535Z,100460.91
2023-05-06T11:08:27.181Z,100472.56
2023-05-06T11:13:30.583Z,100459.59
2023-05-06T11:18:45.027Z,100485.59
2023-05-06T11:24:08.374Z,100475.34
2023-05-06T11:29:10.729Z,100484.31
2023-05-06T11:34:14.052Z,100493.31
2023-05-06T11:39:14.798Z,100493.28
2023-05-06T11:44:30.702Z,100493.00
2023-05-06T11:49:31.664Z,100484.19
2023-05-06T11:54:35.625Z,100495.28
2023-05-06T11:59:39.463Z,100504.59
2023-05-06T12:04:41.692Z,100495.97
2023-05-06T12:09:44.052Z,100491.75
2023-05-06T12:14:47.410Z,100494.44
2023-05-06T12:19:48.329Z,100494.25
2023-05-06T12:24:49.768Z,100501.25
2023-05-06T12:29:54.812Z,100510.28
2023-05-06T12:34:56.508Z,100512.59
2023-05-06T12:39:59.209Z,100506.03
2023-05-06T12:45:14.153Z,100503.19
2023-05-06T12:50:14.844Z,100506.28
2023-05-06T12:55:15.711Z,100503.19
2023-05-06T13:00:18.521Z,100506.03
2023-05-06T13:05:19.431Z,100508.34
2023-05-06T13:10:20.154Z,100509.63
2023-05-06T13:15:22.191Z,100503.56
2023-05-06T13:20:22.935Z,100513.25
2023-05-06T13:25:23.746Z,100500.84
2023-05-06T13:30:25.955Z,100506.47
2023-05-06T13:35:26.815Z,100504.25
2023-05-06T13:40:27.630Z,100504.75
2023-05-06T13:45:29.640Z,100518.25
2023-05-06T13:50:30.346Z,100519.09
2023-05-06T13:55:31.412Z,100526.22
2023-05-06T14:00:33.913Z,100525.28
2023-05-06T14:05:34.632Z,100531.16
2023-05-06T14:10:35.410Z,100531.81
2023-05-06T14:15:37.516Z,100533.13
2023-05-06T14:20:38.215Z,100520.53
2023-05-06T14:25:39.016Z,100529.50
2023-05-06T14:30:41.188Z,100539.56
2023-05-06T14:35:42.770Z,100536.59
2023-05-06T14:40:43.552Z,100544.81
2023-05-06T14:45:45.666Z,100543.22
2023-05-06T14:50:46.377Z,100551.28
2023-05-06T14:55:48.852Z,100553.38
2023-05-06T15:00:50.951Z,100552.25
2023-05-06T15:05:51.702Z,100558.75
2023-05-06T15:10:52.425Z,100560.59
2023-05-06T15:15:54.646Z,100566.53
2023-05-06T15:20:57.676Z,100559.72
2023-05-06T15:25:58.806Z,100564.19
2023-05-06T15:31:00.826Z,100562.66
2023-05-06T15:36:01.527Z,100570.50
2023-05-06T15:41:02.402Z,100577.72
2023-05-06T15:46:04.424Z,100567.16
2023-05-06T15:51:05.339Z,100570.88
2023-05-06T15:56:13.458Z,100570.41
2023-05-06T16:01:23.778Z,100562.03
2023-05-06T16:06:36.199Z,100565.84
2023-05-06T16:11:36.875Z,100570.91
2023-05-06T16:16:38.918Z,100573.25
2023-05-06T16:21:39.654Z,100568.19
2023-05-06T16:26:40.420Z,100570.47
2023-05-06T16:31:42.791Z,100581.16
2023-05-06T16:36:43.632Z,100584.78
2023-05-06T16:41:44.441Z,100584.34
2023-05-06T16:46:46.550Z,100579.38
2023-05-06T16:51:47.244Z,100579.31
2023-05-06T16:56:52.148Z,100587.41
2023-05-06T17:01:54.743Z,100587.78
2023-05-06T17:06:56.036Z,100586.69
2023-05-06T17:11:57.458Z,100586.78
2023-05-06T17:17:02.202Z,100584.31
2023-05-06T17:22:02.968Z,100584.28
2023-05-06T17:27:03.725Z,100587.44
2023-05-06T17:32:06.316Z,100586.13
2023-05-06T17:37:07.421Z,100595.66
2023-05-06T17:42:08.477Z,100599.97
2023-05-06T17:47:10.668Z,100599.72
2023-05-06T17:52:11.407Z,100611.16
2023-05-06T17:57:12.206Z,100605.03
2023-05-06T18:02:15.970Z,100617.44
2023-05-06T18:07:16.613Z,100618.41
2023-05-06T18:12:17.319Z,100632.34
2023-05-06T18:17:19.460Z,100640.91
2023-05-06T18:22:20.231Z,100642.50
2023-05-06T18:27:20.956Z,100647.84
2023-05-06T18:32:22.958Z,100657.16
2023-05-06T18:37:23.633Z,100664.69
2023-05-06T18:42:24.355Z,100656.25
2023-05-06T18:47:26.496Z,100668.38
2023-05-06T18:52:27.212Z,100672.69
2023-05-06T18:57:27.882Z,100679.81
2023-05-06T19:02:30.099Z,100686.03
2023-05-06T19:07:30.878Z,100675.75
2023-05-06T19:12:31.590Z,100684.31
2023-05-06T19:17:33.630Z,100688.72
2023-05-06T19:22:34.431Z,100689.44
2023-05-06T19:27:35.100Z,100703.53
2023-05-06T19:32:37.297Z,100706.34
2023-05-06T19:37:38.551Z,100696.06
2023-05-06T19:42:39.275Z,100705.47
2023-05-06T19:47:41.378Z,100705.59
2023-05-06T19:52:42.075Z,100702.94
2023-05-06T19:57:42.732Z,100703.78
2023-05-06T20:02:44.936Z,100703.72
2023-05-06T20:07:45.904Z,100698.41
2023-05-06T20:12:46.567Z,100695.81
2023-05-06T20:17:48.739Z,100694.44
2023-05-06T20:22:49.520Z,100704.16
2023-05-06T20:27:50.238Z,100700.06
2023-05-06T20:32:52.301Z,100703.44
2023-05-06T20:37:54.484Z,100710.44
2023-05-06T20:42:55.255Z,100712.16
2023-05-06T20:47:57.279Z,100715.56
2023-05-06T20:52:58.055Z,100719.09
2023-05-06T20:57:58.731Z,100720.72
2023-05-06T21:03:01.373Z,100719.72
2023-05-06T21:08:02.274Z,100733.53
2023-05-06T21:13:02.977Z,100738.00
2023-05-06T21:18:05.265Z,100740.66
2023-05-06T21:23:06.073Z,100737.41
2023-05-06T21:28:06.834Z,100729.44
2023-05-06T21:33:11.122Z,100728.44
2023-05-06T21:38:11.947Z,100739.69
2023-05-06T21:43:12.787Z,100745.84
2023-05-06T21:48:14.819Z,100745.78
2023-05-06T21:53:15.537Z,100743.59
2023-05-06T21:58:16.254Z,100760.97
2023-05-06T22:03:18.369Z,100741.22
2023-05-06T22:08:19.154Z,100731.72
2023-05-06T22:13:20.167Z,100749.94
2023-05-06T22:18:22.302Z,100760.50
2023-05-06T22:23:23.965Z,100758.69
2023-05-06T22:28:24.738Z,100762.97
2023-05-06T22:33:27.041Z,100747.50
2023-05-06T22:38:27.729Z,100743.03
2023-05-06T22:43:28.421Z,100756.94
2023-05-06T22:48:31.682Z,100756.22
2023-05-06T22:53:32.420Z,100765.75
2023-05-06T22:58:33.540Z,100759.66
2023-05-06T23:03:36.177Z,100764.03
2023-05-06T23:08:36.895Z,100757.84
2023-05-06T23:13:37.760Z,100762.31
2023-05-06T23:18:39.857Z,100753.56
2023-05-06T23:23:40.581Z,100751.00
2023-05-06T23:28:41.237Z,100755.44
2023-05-06T23:33:43.226Z,100757.31
2023-05-06T23:38:43.890Z,100756.41
2023-05-06T23:43:44.520Z,100760.75
2023-05-06T23:48:46.495Z,100768.50
2023-05-06T23:53:47.308Z,100767.56
2023-05-06T23:58:47.987Z,100771.25
